Time;durP1;ratioP1;P1;durP2;ratioP2;P2;SDS_P1;SDS_P2;PMS_P1;PMS_P2;Temp;Humidity;BMP_temperature;BMP_pressure;BME280_temperature;BME280_humidity;BME280_pressure;Samples;Min_cycle;Max_cycle;Signal;HPM_P1;HPM_P2
2021/07/24 00:01:51;;;;;;;0.98;0.47;;;;;;;15.37;100.00;99717.88;5032466;28;20053;-75
2021/07/24 00:04:55;;;;;;;1.48;0.25;;;;;;;15.34;100.00;99724.50;5036636;28;20109;-76
2021/07/24 00:07:58;;;;;;;1.40;0.40;;;;;;;15.31;100.00;99719.94;5035726;28;20052;-78
2021/07/24 00:11:06;;;;;;;0.63;0.10;;;;;;;15.29;100.00;99700.06;5036214;28;20056;-78
2021/07/24 00:14:10;;;;;;;3.13;0.52;;;;;;;15.29;100.00;99688.81;5035327;28;20402;-78
2021/07/24 00:17:13;;;;;;;7.20;0.68;;;;;;;15.29;100.00;99688.81;5036455;28;20049;-76
2021/07/24 00:20:17;;;;;;;2.08;0.80;;;;;;;15.27;100.00;99685.78;5036223;28;20308;-76
2021/07/24 00:23:21;;;;;;;3.20;0.47;;;;;;;15.28;100.00;99681.69;5035331;28;20425;-74
2021/07/24 00:26:24;;;;;;;2.28;0.32;;;;;;;15.26;100.00;99661.78;5036101;28;20060;-79
2021/07/24 00:29:27;;;;;;;1.05;0.50;;;;;;;15.24;100.00;99658.72;5036594;28;20074;-77
2021/07/24 00:32:31;;;;;;;1.02;0.30;;;;;;;15.25;100.00;99657.44;5035731;28;20117;-81
2021/07/24 00:35:34;;;;;;;1.67;0.38;;;;;;;15.26;100.00;99642.16;5035931;28;20053;-78
2021/07/24 00:38:39;;;;;;;1.55;0.22;;;;;;;15.25;100.00;99632.19;5037750;28;20120;-78
2021/07/24 00:41:50;;;;;;;1.25;0.28;;;;;;;15.24;100.00;99630.69;5035254;28;20061;-77
2021/07/24 00:45:00;;;;;;;0.80;0.28;;;;;;;15.19;100.00;99618.97;5035816;28;20068;-77
2021/07/24 00:48:03;;;;;;;1.58;0.60;;;;;;;15.19;100.00;99618.19;5036029;28;20051;-80
2021/07/24 00:51:07;;;;;;;4.15;0.20;;;;;;;15.13;100.00;99612.59;5040321;28;20049;-78
2021/07/24 00:54:11;;;;;;;0.50;0.10;;;;;;;15.09;100.00;99598.03;5035642;28;20413;-79
2021/07/24 00:57:15;;;;;;;0.10;0.10;;;;;;;15.07;100.00;99594.25;5015521;28;20117;-76
2021/07/24 01:00:19;;;;;;;0.50;0.15;;;;;;;15.05;100.00;99591.94;5014873;28;20100;-75
2021/07/24 01:03:22;;;;;;;4.47;0.82;;;;;;;15.08;100.00;99576.91;5015069;28;20414;-75
2021/07/24 01:06:26;;;;;;;2.03;0.43;;;;;;;15.05;100.00;99558.28;5014955;28;20419;-75
2021/07/24 01:09:32;;;;;;;0.22;0.10;;;;;;;14.97;100.00;99559.31;5014223;28;20053;-75
2021/07/24 01:12:36;;;;;;;0.80;0.28;;;;;;;14.82;100.00;99550.44;5014675;28;20049;-75
2021/07/24 01:15:39;;;;;;;2.20;0.30;;;;;;;14.68;100.00;99540.25;5031878;28;20052;-75
2021/07/24 01:18:43;;;;;;;1.88;0.57;;;;;;;14.53;100.00;99537.72;5034618;28;20550;-75
2021/07/24 01:21:46;;;;;;;1.38;0.22;;;;;;;14.33;100.00;99540.78;5034225;28;20080;-75
2021/07/24 01:24:49;;;;;;;0.52;0.25;;;;;;;14.23;100.00;99533.84;5034548;28;20052;-75
2021/07/24 01:27:53;;;;;;;1.65;0.43;;;;;;;14.15;100.00;99535.63;5034422;28;20524;-75
2021/07/24 01:30:57;;;;;;;0.40;0.20;;;;;;;14.00;100.00;99526.72;5034487;28;20056;-75
2021/07/24 01:34:00;;;;;;;2.15;0.55;;;;;;;13.88;100.00;99519.59;5034415;28;20049;-75
2021/07/24 01:37:04;;;;;;;0.25;0.25;;;;;;;13.77;100.00;99525.16;5034228;28;20056;-75
2021/07/24 01:40:08;;;;;;;0.40;0.25;;;;;;;13.69;100.00;99531.22;5034508;28;20056;-75
2021/07/24 01:43:12;;;;;;;1.15;0.45;;;;;;;13.65;100.00;99525.13;5034300;28;20052;-75
2021/07/24 01:46:16;;;;;;;2.38;0.32;;;;;;;13.62;100.00;99531.72;5033686;28;20056;-75
2021/07/24 01:52:51;;;;;;;1.38;0.30;;;;;;;13.70;100.00;99509.63;5033988;28;20056;-75
2021/07/24 01:56:02;;;;;;;0.80;0.35;;;;;;;13.78;100.00;99507.06;5034024;28;20509;-75
2021/07/24 01:59:07;;;;;;;2.45;0.43;;;;;;;13.76;100.00;99501.22;5033896;28;20048;-75
2021/07/24 02:02:14;;;;;;;3.25;0.50;;;;;;;13.71;100.00;99493.59;5033565;28;20417;-75
2021/07/24 02:05:51;;;;;;;0.68;0.40;;;;;;;13.60;100.00;99483.88;5033774;28;20370;-75
2021/07/24 02:08:55;;;;;;;0.68;0.20;;;;;;;13.56;100.00;99483.38;5027160;28;20509;-75
2021/07/24 02:11:58;;;;;;;1.70;0.70;;;;;;;13.61;100.00;99484.66;5033565;28;20052;-75
2021/07/24 02:15:03;;;;;;;1.95;0.45;;;;;;;13.61;100.00;99485.44;5033532;28;20060;-75
2021/07/24 02:18:07;;;;;;;1.95;0.75;;;;;;;13.49;100.00;99474.72;5033407;28;20044;-75
2021/07/24 02:21:12;;;;;;;1.15;0.30;;;;;;;13.38;100.00;99461.44;5033557;28;20055;-75
2021/07/24 02:24:16;;;;;;;2.25;0.85;;;;;;;13.25;100.00;99455.59;5033618;28;20048;-75
2021/07/24 02:27:19;;;;;;;1.70;0.50;;;;;;;13.20;100.00;99456.31;5033406;28;20485;-75
2021/07/24 02:30:22;;;;;;;0.63;0.20;;;;;;;13.19;100.00;99451.97;5033211;28;20060;-75
2021/07/24 02:33:25;;;;;;;2.90;0.52;;;;;;;13.32;100.00;99435.50;5032928;28;20048;-75
2021/07/24 02:36:29;;;;;;;4.70;0.65;;;;;;;13.47;100.00;99435.31;5033324;28;20048;-76
2021/07/24 02:39:32;;;;;;;2.05;0.95;;;;;;;13.48;100.00;99437.59;5034610;28;20049;-75
2021/07/24 02:42:35;;;;;;;5.13;0.63;;;;;;;13.52;100.00;99435.28;5032631;28;20414;-75
2021/07/24 02:45:39;;;;;;;6.30;0.43;;;;;;;13.54;100.00;99421.56;5033125;28;20056;-75
2021/07/24 02:48:42;;;;;;;0.73;0.43;;;;;;;13.64;100.00;99433.28;5032515;28;20107;-76
2021/07/24 02:51:45;;;;;;;1.83;0.90;;;;;;;13.65;100.00;99429.22;5032945;28;20056;-75
2021/07/24 02:54:49;;;;;;;5.32;0.85;;;;;;;13.71;100.00;99415.25;5032699;28;20048;-75
2021/07/24 02:57:53;;;;;;;1.92;0.60;;;;;;;13.68;100.00;99411.41;5032878;28;20505;-75
2021/07/24 03:00:56;;;;;;;2.10;0.65;;;;;;;13.66;100.00;99420.28;5032464;28;20052;-75
2021/07/24 03:03:59;;;;;;;15.43;1.30;;;;;;;13.71;100.00;99426.44;5033094;28;20053;-75
2021/07/24 03:07:03;;;;;;;0.73;0.50;;;;;;;13.76;100.00;99418.03;5033049;28;20068;-75
2021/07/24 03:10:07;;;;;;;1.75;0.50;;;;;;;13.77;100.00;99413.19;5032487;28;20072;-76
2021/07/24 03:13:10;;;;;;;2.10;0.75;;;;;;;13.75;100.00;99401.75;5032694;28;20064;-75
2021/07/24 03:16:13;;;;;;;1.35;0.13;;;;;;;13.78;100.00;99392.31;5012495;28;20057;-75
2021/07/24 03:19:17;;;;;;;1.95;0.65;;;;;;;13.83;100.00;99397.94;5012643;28;20048;-75
2021/07/24 03:22:20;;;;;;;1.25;0.47;;;;;;;13.85;100.00;99431.00;5011374;28;20057;-75
2021/07/24 03:25:24;;;;;;;2.63;0.40;;;;;;;13.83;100.00;99442.72;5012439;28;20117;-75
2021/07/24 03:28:27;;;;;;;2.25;0.70;;;;;;;13.90;100.00;99445.03;5012948;28;20060;-75
2021/07/24 03:31:30;;;;;;;1.38;0.50;;;;;;;13.97;100.00;99463.34;5012449;28;20057;-76
2021/07/24 03:34:34;;;;;;;1.45;0.52;;;;;;;14.08;100.00;99466.13;5012497;28;20068;-75
2021/07/24 03:37:37;;;;;;;1.67;0.68;;;;;;;14.12;100.00;99469.47;5011971;28;20049;-74
2021/07/24 03:40:43;;;;;;;5.95;0.50;;;;;;;14.13;100.00;99470.97;5012580;28;20053;-75
2021/07/24 03:43:46;;;;;;;4.00;0.43;;;;;;;14.19;100.00;99472.50;5012451;28;20513;-75
2021/07/24 03:46:50;;;;;;;0.52;0.40;;;;;;;14.21;100.00;99483.19;5011886;28;20048;-75
2021/07/24 03:49:53;;;;;;;1.33;0.43;;;;;;;14.20;100.00;99484.47;5012178;28;20410;-75
2021/07/24 03:52:57;;;;;;;3.38;0.90;;;;;;;14.14;100.00;99492.13;5012317;28;20053;-75
2021/07/24 03:56:00;;;;;;;1.38;0.75;;;;;;;14.11;100.00;99482.69;5012668;28;20502;-76
2021/07/24 03:59:04;;;;;;;0.65;0.50;;;;;;;14.16;100.00;99481.16;5013943;28;20057;-75
2021/07/24 04:02:12;;;;;;;7.88;0.55;;;;;;;14.14;100.00;99492.13;5012922;28;20061;-75
2021/07/24 04:05:17;;;;;;;1.00;0.38;;;;;;;14.12;100.00;99489.06;5018169;28;20056;-76
2021/07/24 04:08:21;;;;;;;1.23;0.60;;;;;;;14.12;100.00;99494.66;5018485;28;20061;-76
2021/07/24 04:11:27;;;;;;;1.27;0.45;;;;;;;14.13;100.00;99491.34;5018839;28;20049;-76
2021/07/24 04:14:31;;;;;;;1.58;0.20;;;;;;;14.13;100.00;99479.38;5027038;28;20057;-75
2021/07/24 04:17:34;;;;;;;1.48;0.40;;;;;;;14.15;100.00;99476.84;5038159;28;20052;-75
2021/07/24 04:20:39;;;;;;;2.17;0.68;;;;;;;14.16;100.00;99479.13;5033822;28;20052;-75
2021/07/24 04:23:42;;;;;;;2.42;0.65;;;;;;;14.17;100.00;99479.88;5031059;28;20457;-75
2021/07/24 04:26:45;;;;;;;2.10;0.40;;;;;;;14.16;100.00;99478.38;5031063;28;20076;-75
2021/07/24 04:29:49;;;;;;;1.10;0.43;;;;;;;14.17;100.00;99477.09;5031309;28;20045;-75
2021/07/24 04:32:52;;;;;;;0.73;0.20;;;;;;;14.19;100.00;99477.34;5028535;28;20048;-75
2021/07/24 04:35:55;;;;;;;2.35;0.40;;;;;;;14.18;100.00;99478.63;5024455;28;20048;-75
2021/07/24 04:38:59;;;;;;;1.45;0.40;;;;;;;14.18;100.00;99475.81;5014559;28;20061;-75
2021/07/24 04:42:02;;;;;;;1.20;0.73;;;;;;;14.18;100.00;99481.44;5013292;28;20517;-76
2021/07/24 04:45:07;;;;;;;1.50;1.20;;;;;;;14.20;100.00;99484.47;5024147;28;20478;-75
2021/07/24 04:48:11;;;;;;;1.75;0.40;;;;;;;14.19;100.00;99488.53;5023539;28;20053;-75
2021/07/24 04:51:15;;;;;;;1.10;0.43;;;;;;;14.21;100.00;99486.75;5035655;28;20052;-75
2021/07/24 04:54:19;;;;;;;0.75;0.28;;;;;;;14.20;100.00;99490.84;5035310;28;20116;-75
2021/07/24 04:57:23;;;;;;;3.42;0.38;;;;;;;14.21;100.00;99492.38;5035634;28;20070;-75
2021/07/24 05:00:26;;;;;;;3.47;0.50;;;;;;;14.26;100.00;99499.25;5034446;28;20052;-75
2021/07/24 05:03:31;;;;;;;1.45;0.60;;;;;;;14.29;100.00;99490.59;5027150;28;20072;-75
2021/07/24 05:06:36;;;;;;;1.45;0.50;;;;;;;14.30;100.00;99489.34;5030232;28;20053;-75
2021/07/24 05:09:40;;;;;;;1.25;0.38;;;;;;;14.35;100.00;99485.00;5034722;28;20052;-75
2021/07/24 05:12:44;;;;;;;2.70;0.38;;;;;;;14.33;100.00;99477.13;5034812;28;20052;-76
2021/07/24 05:15:48;;;;;;;1.40;0.60;;;;;;;14.37;100.00;99476.84;5034513;28;20052;-75
2021/07/24 05:18:51;;;;;;;4.20;0.70;;;;;;;14.39;100.00;99474.31;5034907;28;20048;-75
2021/07/24 05:21:55;;;;;;;2.13;0.98;;;;;;;14.41;100.00;99477.34;5034891;28;20060;-75
2021/07/24 05:24:58;;;;;;;7.03;0.65;;;;;;;14.42;100.00;99474.03;5034747;28;20075;-74
2021/07/24 05:28:02;;;;;;;2.88;1.02;;;;;;;14.46;100.00;99476.59;5034623;28;20425;-76
2021/07/24 05:31:14;;;;;;;2.80;0.90;;;;;;;14.47;100.00;99475.31;5034126;28;20056;-75
2021/07/24 05:34:17;;;;;;;2.60;1.33;;;;;;;14.49;100.00;99477.63;5034178;28;20371;-76
2021/07/24 05:37:21;;;;;;;3.38;0.80;;;;;;;14.51;100.00;99475.81;5034100;28;20053;-76
2021/07/24 05:40:24;;;;;;;11.63;0.82;;;;;;;14.50;100.00;99463.09;5033990;28;20060;-76
2021/07/24 05:43:28;;;;;;;5.10;1.90;;;;;;;14.52;100.00;99471.75;5034072;28;20053;-75
2021/07/24 05:46:31;;;;;;;9.18;2.53;;;;;;;14.55;100.00;99472.75;5033684;28;20052;-75
2021/07/24 05:49:37;;;;;;;2.88;0.90;;;;;;;14.57;100.00;99476.59;5033745;28;20104;-75
2021/07/24 05:52:41;;;;;;;6.20;1.88;;;;;;;14.57;100.00;99479.38;5034134;28;20834;-75
2021/07/24 05:55:44;;;;;;;8.02;1.77;;;;;;;14.56;100.00;99489.06;5033697;28;20060;-75
2021/07/24 05:58:48;;;;;;;15.00;2.42;;;;;;;14.58;100.00;99486.50;5033801;28;20068;-75
2021/07/24 06:01:51;;;;;;;7.47;1.88;;;;;;;14.59;100.00;99493.66;5033336;28;20398;-75
2021/07/24 06:04:54;;;;;;;4.93;1.80;;;;;;;14.62;100.00;99489.81;5033347;28;20060;-75
2021/07/24 06:07:58;;;;;;;5.50;2.25;;;;;;;14.64;100.00;99501.25;5033876;28;20053;-75
2021/07/24 06:11:04;;;;;;;6.85;2.72;;;;;;;14.61;100.00;99502.31;5033919;28;20076;-76
2021/07/24 06:14:08;;;;;;;3.42;1.67;;;;;;;14.62;100.00;99503.06;5033893;28;20429;-75
2021/07/24 06:17:11;;;;;;;1.60;0.70;;;;;;;14.64;100.00;99500.53;5033509;28;20509;-75
2021/07/24 06:20:15;;;;;;;1.85;0.55;;;;;;;14.65;100.00;99508.41;5022290;28;20113;-76
2021/07/24 06:23:19;;;;;;;1.95;0.93;;;;;;;14.68;100.00;99506.63;5013343;28;20057;-75
2021/07/24 06:26:22;;;;;;;4.13;1.45;;;;;;;14.71;100.00;99499.97;5013853;28;20068;-75
2021/07/24 06:29:26;;;;;;;1.30;0.35;;;;;;;14.75;100.00;99501.25;5013536;28;20165;-75
2021/07/24 06:32:30;;;;;;;1.38;0.70;;;;;;;14.76;100.00;99502.78;5013429;28;20061;-76
2021/07/24 06:35:34;;;;;;;8.60;0.85;;;;;;;14.78;100.00;99503.03;5012879;28;20072;-75
2021/07/24 06:38:38;;;;;;;1.73;0.65;;;;;;;14.79;100.00;99503.81;5013229;28;20068;-75
2021/07/24 06:41:41;;;;;;;1.92;0.63;;;;;;;14.81;100.00;99490.78;5013367;28;20061;-76
2021/07/24 06:44:45;;;;;;;1.30;0.70;;;;;;;14.81;100.00;99496.38;5012994;28;20076;-76
2021/07/24 06:47:48;;;;;;;0.75;0.47;;;;;;;14.82;100.00;99499.97;5015819;28;20398;-76
2021/07/24 06:50:52;;;;;;;1.27;1.13;;;;;;;14.82;100.00;99506.34;5012427;28;20053;-75
2021/07/24 06:53:55;;;;;;;1.90;0.73;;;;;;;14.81;100.00;99504.81;5013346;28;20057;-75
2021/07/24 06:56:58;;;;;;;6.95;1.33;;;;;;;14.83;100.00;99512.72;5013480;28;20502;-75
2021/07/24 07:00:02;;;;;;;2.05;0.93;;;;;;;14.80;100.00;99508.91;5012855;28;20430;-75
2021/07/24 07:03:06;;;;;;;3.30;0.63;;;;;;;14.80;100.00;99511.69;5013082;28;20053;-75
2021/07/24 07:06:12;;;;;;;2.30;0.47;;;;;;;14.81;100.00;99509.66;5012842;28;20402;-75
2021/07/24 07:09:15;;;;;;;0.57;0.30;;;;;;;14.82;100.00;99511.94;5012787;28;20052;-75
2021/07/24 07:12:19;;;;;;;3.15;0.80;;;;;;;14.86;100.00;99511.66;5023631;28;20052;-75
2021/07/24 07:15:24;;;;;;;1.17;0.52;;;;;;;14.95;100.00;99509.38;5028150;28;20075;-75
2021/07/24 07:18:28;;;;;;;4.20;0.98;;;;;;;15.04;100.00;99500.69;5031962;28;20048;-76
2021/07/24 07:21:31;;;;;;;1.10;0.45;;;;;;;15.12;100.00;99487.63;5031954;28;20052;-75
2021/07/24 07:24:35;;;;;;;2.83;0.73;;;;;;;15.15;100.00;99477.44;5021754;28;20045;-76
2021/07/24 07:27:43;;;;;;;1.85;0.40;;;;;;;15.24;100.00;99491.19;5014417;28;20517;-75
2021/07/24 07:30:48;;;;;;;1.88;0.75;;;;;;;15.31;100.00;99490.63;5012218;28;20056;-76
2021/07/24 07:33:52;;;;;;;1.55;1.08;;;;;;;15.33;100.00;99493.69;5012404;28;20069;-75
2021/07/24 07:36:55;;;;;;;1.23;0.50;;;;;;;15.37;100.00;99493.41;5012329;28;20419;-75
2021/07/24 07:39:58;;;;;;;1.05;0.70;;;;;;;15.36;100.00;99480.66;5012008;28;20509;-75
2021/07/24 07:43:04;;;;;;;1.42;0.50;;;;;;;15.37;100.00;99487.78;5022486;28;20064;-76
2021/07/24 07:46:08;;;;;;;1.95;0.47;;;;;;;15.37;100.00;99482.19;5031182;28;20072;-75
2021/07/24 07:49:11;;;;;;;0.70;0.35;;;;;;;15.39;100.00;99485.22;5030377;28;20056;-75
2021/07/24 07:52:15;;;;;;;1.23;0.40;;;;;;;15.39;100.00;99479.63;5031117;28;20044;-75
2021/07/24 07:55:18;;;;;;;3.72;0.85;;;;;;;15.46;100.00;99473.50;5028841;28;20044;-76
2021/07/24 07:58:23;;;;;;;1.55;0.30;;;;;;;15.67;100.00;99471.84;5029130;28;20052;-76
2021/07/24 08:01:26;;;;;;;1.30;0.65;;;;;;;15.95;100.00;99469.59;5028481;28;20048;-76
2021/07/24 08:04:30;;;;;;;0.63;0.35;;;;;;;16.15;100.00;99457.97;5030385;28;20718;-75
2021/07/24 08:07:34;;;;;;;7.88;0.68;;;;;;;16.28;100.00;99466.53;5030633;28;20061;-76
2021/07/24 08:10:37;;;;;;;0.40;0.40;;;;;;;16.18;100.00;99473.75;5028806;28;20056;-75
2021/07/24 08:13:41;;;;;;;1.20;0.30;;;;;;;16.13;100.00;99471.78;5028536;28;20441;-75
2021/07/24 08:16:44;;;;;;;1.20;0.20;;;;;;;16.25;100.00;99470.38;5029303;28;20155;-76
2021/07/24 08:19:48;;;;;;;8.95;0.52;;;;;;;16.30;100.00;99466.78;5022332;28;20395;-75
2021/07/24 08:22:51;;;;;;;1.00;0.30;;;;;;;16.33;100.00;99462.91;5012610;28;20053;-75
2021/07/24 08:25:54;;;;;;;1.90;0.30;;;;;;;16.52;100.00;99454.59;5016128;28;20081;-75
2021/07/24 08:28:57;;;;;;;1.98;0.45;;;;;;;16.65;100.00;99458.28;5021951;28;20048;-75
2021/07/24 08:32:01;;;;;;;4.55;0.65;;;;;;;16.79;100.00;99455.56;5023508;28;20061;-76
2021/07/24 08:35:05;;;;;;;0.77;0.32;;;;;;;16.88;100.00;99452.41;5035618;28;20080;-76
2021/07/24 08:38:08;;;;;;;1.77;0.50;;;;;;;17.07;100.00;99442.72;5035800;28;20497;-76
2021/07/24 08:41:15;;;;;;;0.65;0.20;;;;;;;17.27;100.00;99438.63;5035528;28;20053;-76
2021/07/24 08:44:19;;;;;;;1.20;0.32;;;;;;;17.55;100.00;99447.50;5028795;28;20057;-76
2021/07/24 08:47:22;;;;;;;1.52;0.40;;;;;;;17.97;100.00;99421.25;5031928;28;20056;-77
2021/07/24 08:50:26;;;;;;;3.72;0.63;;;;;;;18.00;100.00;99428.63;5039917;28;20048;-76
2021/07/24 08:53:33;;;;;;;1.92;0.50;;;;;;;17.81;100.00;99432.75;5035007;28;20410;-76
2021/07/24 08:56:45;;;;;;;1.00;0.52;;;;;;;17.61;100.00;99428.44;5035172;28;20088;-76
2021/07/24 08:59:50;;;;;;;2.35;0.43;;;;;;;17.56;100.00;99437.00;5034750;28;20064;-76
2021/07/24 09:02:58;;;;;;;0.25;0.10;;;;;;;17.63;100.00;99420.22;5034179;28;20128;-76
2021/07/24 09:06:02;;;;;;;1.88;0.35;;;;;;;17.62;100.00;99417.94;5023955;28;20049;-76
2021/07/24 09:09:05;;;;;;;1.75;0.25;;;;;;;17.53;100.00;99405.03;5015191;28;20064;-76
2021/07/24 09:12:10;;;;;;;1.95;0.45;;;;;;;17.50;100.00;99411.72;5025911;28;20049;-75
2021/07/24 09:15:16;;;;;;;1.27;0.57;;;;;;;17.70;100.00;99402.72;5030157;28;20078;-76
2021/07/24 09:18:22;;;;;;;4.50;0.30;;;;;;;17.89;100.00;99403.44;5037050;28;20053;-76
2021/07/24 09:21:27;;;;;;;2.95;0.57;;;;;;;18.18;100.00;99399.63;5037194;28;20056;-76
2021/07/24 09:24:30;;;;;;;4.57;0.57;;;;;;;18.33;100.00;99395.50;5038395;28;20509;-76
2021/07/24 09:27:35;;;;;;;3.25;0.30;;;;;;;18.42;100.00;99392.28;5037814;28;20052;-75
2021/07/24 09:30:39;;;;;;;1.58;0.55;;;;;;;18.46;100.00;99381.47;5037626;28;20053;-75
2021/07/24 09:33:49;;;;;;;2.35;0.28;;;;;;;18.46;100.00;99381.47;5034658;28;20053;-75
2021/07/24 09:36:53;;;;;;;0.95;0.40;;;;;;;18.46;100.00;99387.09;5035065;28;20048;-76
2021/07/24 09:40:17;;;;;;;0.70;0.40;;;;;;;18.41;100.00;99391.50;5034150;28;20048;-76
2021/07/24 09:43:35;;;;;;;1.75;0.65;;;;;;;18.45;100.00;99391.22;5034110;28;20064;-76
2021/07/24 09:46:39;;;;;;;1.73;0.52;;;;;;;18.48;100.00;99384.50;5033624;28;20068;-75
2021/07/24 09:49:44;;;;;;;1.75;0.40;;;;;;;18.48;100.00;99367.56;5033515;28;20053;-75
2021/07/24 09:52:48;;;;;;;2.33;0.40;;;;;;;18.42;100.00;99370.47;5034049;28;20060;-75
2021/07/24 09:55:52;;;;;;;2.78;0.40;;;;;;;18.44;100.00;99367.13;5033939;28;20056;-76
2021/07/24 09:59:15;;;;;;;1.15;0.20;;;;;;;18.42;100.00;99361.25;5033951;28;20394;-76
2021/07/24 10:02:29;;;;;;;1.48;0.50;;;;;;;18.66;100.00;99350.56;5034096;28;20068;-75
2021/07/24 10:05:38;;;;;;;1.58;0.20;;;;;;;19.11;100.00;99339.06;5033901;28;20394;-76
2021/07/24 10:08:47;;;;;;;1.52;0.40;;;;;;;19.49;100.00;99337.44;5033369;28;20097;-75
2021/07/24 10:11:56;;;;;;;0.57;0.28;;;;;;;19.56;100.00;99345.25;5033890;28;20430;-76
2021/07/24 10:14:59;;;;;;;0.52;0.17;;;;;;;19.89;100.00;99331.59;5032077;28;20057;-75
2021/07/24 10:18:04;;;;;;;3.33;0.95;;;;;;;20.30;100.00;99331.56;5033555;28;20505;-76
2021/07/24 10:21:07;;;;;;;2.13;0.43;;;;;;;20.91;100.00;99327.00;5033487;28;20064;-73
2021/07/24 10:24:11;;;;;;;0.82;0.30;;;;;;;21.13;100.00;99335.63;5027060;28;20072;-73
2021/07/24 10:27:21;;;;;;;1.45;0.35;;;;;;;21.37;100.00;99328.69;5017291;28;20045;-73
2021/07/24 10:30:29;;;;;;;0.57;0.17;;;;;;;21.17;100.00;99328.81;5020846;28;20509;-74
2021/07/24 10:33:33;;;;;;;1.55;0.25;;;;;;;20.83;100.00;99337.53;5014451;28;20065;-73
2021/07/24 10:36:42;;;;;;;1.40;0.45;;;;;;;20.55;100.00;99329.09;5013081;28;20053;-76
2021/07/24 10:39:45;;;;;;;2.60;0.30;;;;;;;20.41;100.00;99325.59;5014467;28;20104;-75
2021/07/24 10:42:53;;;;;;;1.10;0.57;;;;;;;20.35;100.00;99334.25;5012977;28;20053;-76
2021/07/24 10:45:57;;;;;;;0.43;0.20;;;;;;;20.38;100.00;99343.66;5023584;28;20056;-75
2021/07/24 10:49:00;;;;;;;1.38;0.20;;;;;;;20.51;100.00;99340.75;5035308;28;20057;-76
2021/07/24 10:52:05;;;;;;;2.92;0.22;;;;;;;20.65;100.00;99335.72;5035388;28;20053;-75
2021/07/24 10:55:13;;;;;;;0.35;0.20;;;;;;;20.63;100.00;99346.84;5032616;28;20052;-76
2021/07/24 10:58:25;;;;;;;1.27;0.10;;;;;;;20.47;100.00;99333.91;5033567;28;20406;-76
2021/07/24 11:01:48;;;;;;;1.05;0.40;;;;;;;20.33;100.00;99342.53;5030507;28;20414;-76
2021/07/24 11:04:52;;;;;;;0.65;0.20;;;;;;;20.28;100.00;99340.59;5026339;28;20409;-77
2021/07/24 11:07:57;;;;;;;2.20;0.45;;;;;;;20.47;100.00;99334.69;5032856;28;20056;-76
2021/07/24 11:11:10;;;;;;;0.80;0.20;;;;;;;20.58;100.00;99330.78;5032703;28;20505;-76
2021/07/24 11:14:42;;;;;;;1.15;0.20;;;;;;;20.53;100.00;99315.47;5032790;28;20508;-75
2021/07/24 11:18:24;;;;;;;1.75;0.10;;;;;;;20.65;100.00;99310.25;5021198;28;20136;-77
2021/07/24 11:22:05;;;;;;;1.85;0.17;;;;;;;21.13;100.00;99300.88;5031679;28;20076;-76
2021/07/24 11:25:09;;;;;;;0.45;0.22;;;;;;;21.94;100.00;99302.91;5012800;28;20074;-76
2021/07/24 11:28:21;;;;;;;2.85;0.20;;;;;;;22.31;100.00;99311.34;5012533;28;20403;-77
2021/07/24 11:31:24;;;;;;;2.00;0.30;;;;;;;22.35;100.00;99313.81;5012314;28;20049;-77
2021/07/24 11:34:33;;;;;;;1.25;0.20;;;;;;;22.28;100.00;99306.84;5012512;28;20060;-76
2021/07/24 11:37:45;;;;;;;0.63;0.22;;;;;;;22.50;100.00;99293.91;5012396;28;20485;-73
2021/07/24 11:41:11;;;;;;;1.67;0.20;;;;;;;22.16;100.00;99293.59;5012436;28;20518;-73
2021/07/24 11:44:24;;;;;;;0.70;0.30;;;;;;;21.95;100.00;99278.88;5012036;28;20545;-74
2021/07/24 11:47:28;;;;;;;0.40;0.20;;;;;;;21.74;100.00;99276.22;5011903;28;20052;-74
2021/07/24 11:50:31;;;;;;;1.00;0.20;;;;;;;22.13;100.00;99284.16;5012201;28;20045;-74
2021/07/24 11:53:35;;;;;;;0.73;0.20;;;;;;;22.57;100.00;99288.22;5012368;28;20052;-73
2021/07/24 11:56:40;;;;;;;0.55;0.10;;;;;;;22.63;100.00;99283.09;5012215;28;20076;-72
2021/07/24 11:59:43;;;;;;;0.98;0.22;;;;;;;22.49;100.00;99290.31;5011197;28;20506;-73
2021/07/24 12:02:46;;;;;;;0.77;0.25;;;;;;;21.88;100.00;99301.00;5012322;28;20502;-73
2021/07/24 12:05:53;;;;;;;1.20;0.20;;;;;;;21.45;100.00;99317.38;5011729;28;20045;-73
2021/07/24 12:08:56;;;;;;;1.38;0.40;;;;;;;21.33;100.00;99316.94;5011562;28;20053;-73
2021/07/24 12:12:01;;;;;;;1.55;0.10;;;;;;;21.31;100.00;99313.94;5011648;28;20072;-73
2021/07/24 12:15:07;;;;;;;0.75;0.40;;;;;;;21.25;100.00;99318.25;5024503;28;20052;-75
2021/07/24 12:18:17;;;;;;;1.58;0.50;;;;;;;21.29;100.00;99316.56;5029760;28;20068;-75
2021/07/24 12:21:31;;;;;;;2.00;0.52;;;;;;;21.14;100.00;99320.13;5026737;28;20064;-76
2021/07/24 12:24:35;;;;;;;0.75;0.17;;;;;;;20.78;100.00;99336.38;5012210;28;20061;-76
2021/07/24 12:27:49;;;;;;;5.82;0.60;;;;;;;20.35;100.00;99337.09;5012133;28;20053;-76
2021/07/24 12:30:52;;;;;;;1.58;0.20;;;;;;;20.04;100.00;99348.69;5022620;28;20057;-76
2021/07/24 12:33:59;;;;;;;2.42;1.02;;;;;;;19.78;100.00;99349.59;5027471;28;20064;-76
2021/07/24 12:37:03;;;;;;;4.18;0.85;;;;;;;19.68;100.00;99338.00;5031566;28;20523;-76
2021/07/24 12:40:20;;;;;;;1.77;0.38;;;;;;;19.72;100.00;99351.81;5031842;28;20076;-75
2021/07/24 12:43:23;;;;;;;1.95;0.45;;;;;;;19.81;100.00;99359.03;5031455;28;20504;-76
2021/07/24 12:46:27;;;;;;;1.50;0.52;;;;;;;19.86;100.00;99355.31;5031376;28;20056;-75
2021/07/24 12:49:37;;;;;;;2.45;0.57;;;;;;;19.96;100.00;99362.00;5031900;28;20406;-76
2021/07/24 12:52:56;;;;;;;1.13;0.32;;;;;;;20.05;100.00;99364.34;5031269;28;20053;-76
2021/07/24 12:55:59;;;;;;;1.65;0.28;;;;;;;20.17;100.00;99362.72;5031620;28;20057;-75
2021/07/24 12:59:03;;;;;;;2.17;0.38;;;;;;;20.27;100.00;99361.69;5031658;28;20422;-76
2021/07/24 13:02:06;;;;;;;2.20;0.43;;;;;;;20.70;100.00;99351.81;5020577;28;20065;-76
2021/07/24 13:05:12;;;;;;;2.22;0.57;;;;;;;21.19;100.00;99357.31;5011501;28;20207;-76
2021/07/24 13:08:15;;;;;;;7.32;0.75;;;;;;;21.43;100.00;99356.84;5011863;28;20053;-74
2021/07/24 13:11:19;;;;;;;3.08;0.40;;;;;;;21.59;100.00;99352.72;5014281;28;20049;-75
2021/07/24 13:14:22;;;;;;;0.88;0.40;;;;;;;22.06;100.00;99347.31;5021996;28;20068;-74
2021/07/24 13:17:26;;;;;;;0.90;0.25;;;;;;;22.28;100.00;99345.78;5034769;28;20049;-75
2021/07/24 13:20:29;;;;;;;5.65;0.80;;;;;;;22.28;100.00;99352.22;5034735;28;20048;-74
2021/07/24 13:23:33;;;;;;;1.15;0.55;;;;;;;21.97;100.00;99339.38;5034108;28;20057;-73
2021/07/24 13:29:50;;;;;;;3.72;0.50;;;;;;;21.34;100.00;99331.88;5034391;28;20112;-74
2021/07/24 13:32:57;;;;;;;3.65;0.52;;;;;;;21.32;100.00;99331.69;5034460;28;20072;-73
2021/07/24 13:36:00;;;;;;;0.98;0.30;;;;;;;21.36;100.00;99332.06;5033436;28;20060;-74
2021/07/24 13:39:04;;;;;;;2.03;0.57;;;;;;;21.42;100.00;99335.50;5034113;28;20056;-73
2021/07/24 13:42:08;;;;;;;2.60;0.22;;;;;;;21.83;100.00;99332.34;5033975;28;20056;-71
2021/07/24 13:45:12;;;;;;;1.25;0.30;;;;;;;21.96;100.00;99326.50;5034000;28;20048;-72
2021/07/24 13:48:15;;;;;;;1.02;0.40;;;;;;;21.76;100.00;99324.59;5034750;28;20052;-76
2021/07/24 13:51:24;;;;;;;2.38;0.80;;;;;;;21.64;100.00;99323.44;5034694;28;20057;-74
2021/07/24 13:54:31;;;;;;;2.10;0.50;;;;;;;21.86;100.00;99317.06;5034229;28;20048;-72
2021/07/24 13:57:38;;;;;;;6.70;0.65;;;;;;;21.92;100.00;99311.22;5033791;28;20056;-69
2021/07/24 14:00:42;;;;;;;0.95;0.25;;;;;;;21.85;100.00;99309.88;5033659;28;20052;-72
2021/07/24 14:03:45;;;;;;;0.98;0.20;;;;;;;21.69;100.00;99309.09;5033968;28;20072;-73
2021/07/24 14:06:49;;;;;;;0.32;0.13;;;;;;;21.74;100.00;99304.56;5033847;28;20117;-73
2021/07/24 14:10:14;;;;;;;2.05;0.20;;;;;;;22.33;100.00;99308.69;5031031;28;20052;-74
2021/07/24 14:13:18;;;;;;;4.55;0.40;;;;;;;22.23;100.00;99315.53;5037262;28;20053;-75
2021/07/24 14:16:22;;;;;;;2.67;0.40;;;;;;;22.02;100.00;99312.16;5028643;28;20064;-75
2021/07/24 14:19:26;;;;;;;4.00;0.20;;;;;;;21.77;100.00;99303.41;5033024;28;20057;-74
2021/07/24 14:22:29;;;;;;;11.02;0.73;;;;;;;21.48;100.00;99302.84;5024278;28;20418;-77
2021/07/24 14:25:32;;;;;;;7.20;0.40;;;;;;;21.67;100.00;99293.97;5035480;28;20514;-74
2021/07/24 14:28:37;;;;;;;2.25;0.30;;;;;;;21.95;100.00;99290.22;5037133;28;20052;-74